KLFK/LFK METAR and TAF weather

Enter ICAO airport designator
Station Type Date Time Source
KLFK METAR 2020/09/18 07:53 UTC NOAA

KLFK 180753Z AUTO 01004KT 10SM CLR 22/21 A2999 RMK AO2 SLP150 T02220206


Station Type Date Time Source
KLFK Decoded METAR 2020/09/18 07:53 UTC NOAA

LUFKIN ANGELINA COUNTY AIRPORT , TX, United States (KLFK) 31-14N 94-45W 88M
Sep 18, 2020 - 03:53 AM EDT / 2020.09.18 0753 UTC
Wind: from the N (010 degrees) at 5 MPH (4 KT):0
Visibility: 10 mile(s):0
Sky conditions: clear
Temperature: 72.0 F (22.2 C)
Dew Point: 69.1 F (20.6 C)
Relative Humidity: 90%
Pressure (altimeter): 29.99 in. Hg (1015 hPa)
ob: KLFK 180753Z AUTO 01004KT 10SM CLR 22/21 A2999 RMK AO2 SLP150 T02220206
cycle: 8

Station Type Date Time Source
KLFK TAF 2020/09/18 06:33 UTC NOAA

TAF KLFK 180531Z 1806/1906 35003KT P6SM SCT180 SCT250
TEMPO 1812/1816 BKN015
FM181600 04010KT P6SM SCT035 SCT250
FM190100 04005KT P6SM SCT035 BKN250

Example: see airport list